Terminal Aerodrome Forecast
Issued by NWS

Home | Current Version | Previous Version | Text Only | Print | Product List | Glossary On
Versions: 1 2 3 4 5 6 7 8 9 10 11 12 13 14 15 16 17 18 19 20 21 22 23
000
FTUS46 KMFR 280553 CCA
TAFLMT
TAF COR
KLMT 280553Z 2806/2906 17005KT P6SM FEW060 OVC150
     FM281200 17006KT P6SM SCT080 OVC150 WS020/22035KT
     FM281600 17009KT P6SM -SHRA BKN040 OVC060
     FM282100 20013G22KT P6SM -RA SCT020 BKN035 OVC050
     FM290000 20010KT 6SM -RA SCT015 BKN030 OVC050
     FM290400 21008KT P6SM -SHRA SCT020 BKN035 OVC080=

USA.gov is the U.S. government's official web portal to all federal, state and local government web resources and services.